Time;durP1;ratioP1;P1;durP2;ratioP2;P2;SDS_P1;SDS_P2;PMS_P1;PMS_P2;Temp;Humidity;BMP_temperature;BMP_pressure;BME280_temperature;BME280_humidity;BME280_pressure;Samples;Min_cycle;Max_cycle;Signal;HPM_P1;HPM_P2
2023/01/29 00:00:51;;;;;;;;;;;0.40;99.90;;;;;;5027760;28;19913;-79
2023/01/29 00:03:16;;;;;;;;;;;0.40;99.90;;;;;;5038624;28;20050;-79
2023/01/29 00:05:42;;;;;;;;;;;0.40;99.90;;;;;;5037880;28;20263;-78
2023/01/29 00:08:07;;;;;;;;;;;0.40;99.90;;;;;;5035325;28;19909;-78
2023/01/29 00:10:33;;;;;;;;;;;0.40;99.90;;;;;;5017248;28;19910;-78
2023/01/29 00:12:58;;;;;;;;;;;0.40;99.90;;;;;;5016487;28;19918;-78
2023/01/29 00:15:24;;;;;;;;;;;0.40;99.90;;;;;;5019031;28;20281;-77
2023/01/29 00:17:49;;;;;;;;;;;0.40;99.90;;;;;;5022902;28;19909;-77
2023/01/29 00:20:15;;;;;;;;;;;0.40;99.90;;;;;;5030503;28;19921;-78
2023/01/29 00:22:40;;;;;;;;;;;0.40;99.90;;;;;;5038256;28;19964;-78
2023/01/29 00:25:10;;;;;;;;;;;0.40;99.90;;;;;;5039360;28;19928;-78
2023/01/29 00:27:36;;;;;;;;;;;0.30;99.90;;;;;;5041202;28;19909;-78
2023/01/29 00:30:15;;;;;;;;;;;0.30;99.90;;;;;;5027407;28;19920;-78
2023/01/29 00:32:40;;;;;;;;;;;0.30;99.90;;;;;;5049346;28;19909;-77
2023/01/29 00:35:06;;;;;;;;;;;0.30;99.90;;;;;;5048695;28;19909;-77
2023/01/29 00:37:32;;;;;;;;;;;0.30;99.90;;;;;;5049346;28;20333;-78
2023/01/29 00:40:15;;;;;;;;;;;0.30;99.90;;;;;;5031178;28;19942;-78
2023/01/29 00:45:27;;;;;;;;;;;0.30;99.90;;;;;;5041431;28;19935;-77
2023/01/29 00:47:52;;;;;;;;;;;0.30;99.90;;;;;;5025747;28;20383;-77
2023/01/29 00:50:18;;;;;;;;;;;0.30;99.90;;;;;;5034052;28;20363;-77
2023/01/29 00:52:44;;;;;;;;;;;0.30;99.90;;;;;;5017320;28;20289;-78
2023/01/29 00:55:10;;;;;;;;;;;0.30;99.90;;;;;;5003216;28;19918;-77
2023/01/29 00:57:36;;;;;;;;;;;0.30;99.90;;;;;;5017747;28;19909;-77
2023/01/29 01:00:02;;;;;;;;;;;0.30;99.90;;;;;;5021073;28;19918;-77
2023/01/29 01:05:16;;;;;;;;;;;0.40;99.90;;;;;;5019761;28;19964;-78
2023/01/29 01:08:00;;;;;;;;;;;0.40;99.90;;;;;;5018946;28;19928;-77
2023/01/29 01:10:30;;;;;;;;;;;0.30;99.90;;;;;;5021321;28;19967;-78
2023/01/29 01:13:00;;;;;;;;;;;0.30;99.90;;;;;;5001065;28;19924;-78
2023/01/29 01:15:27;;;;;;;;;;;0.30;99.90;;;;;;5001303;28;19920;-77
2023/01/29 01:17:54;;;;;;;;;;;0.40;99.90;;;;;;5018859;28;20003;-78
2023/01/29 01:20:19;;;;;;;;;;;0.40;99.90;;;;;;5019860;28;19910;-78
2023/01/29 01:22:45;;;;;;;;;;;0.40;99.90;;;;;;5019959;28;19920;-78
2023/01/29 01:25:10;;;;;;;;;;;0.30;99.90;;;;;;5006747;28;19928;-78
2023/01/29 01:27:39;;;;;;;;;;;0.30;99.90;;;;;;5026915;28;19945;-78
2023/01/29 01:30:09;;;;;;;;;;;0.30;99.90;;;;;;5033635;28;19937;-77
2023/01/29 01:32:35;;;;;;;;;;;0.30;99.90;;;;;;5045314;28;19924;-77
2023/01/29 01:35:01;;;;;;;;;;;0.30;99.90;;;;;;5034966;28;20354;-79
2023/01/29 01:37:26;;;;;;;;;;;0.30;99.90;;;;;;5040885;28;19910;-79
2023/01/29 01:39:56;;;;;;;;;;;0.30;99.90;;;;;;5041836;28;19909;-78
2023/01/29 01:42:23;;;;;;;;;;;0.30;99.90;;;;;;5031897;28;20278;-79
2023/01/29 01:44:53;;;;;;;;;;;0.30;99.90;;;;;;5020568;28;19906;-79
2023/01/29 01:47:21;;;;;;;;;;;0.30;99.90;;;;;;5020551;28;19898;-79
2023/01/29 01:49:46;;;;;;;;;;;0.30;99.90;;;;;;5020676;28;20041;-77
2023/01/29 01:52:15;;;;;;;;;;;0.30;99.90;;;;;;5018289;28;20406;-78
2023/01/29 01:54:41;;;;;;;;;;;0.30;99.90;;;;;;5000661;28;20334;-77
2023/01/29 01:57:14;;;;;;;;;;;0.20;99.90;;;;;;5017177;28;19910;-78
2023/01/29 01:59:42;;;;;;;;;;;0.30;99.90;;;;;;5017045;28;20370;-78
2023/01/29 02:10:26;;;;;;;;;;;0.20;99.90;;;;;;5038529;28;20309;-79
2023/01/29 02:12:52;;;;;;;;;;;0.30;99.90;;;;;;5035228;28;19932;-78
2023/01/29 02:15:17;;;;;;;;;;;0.30;99.90;;;;;;5021362;28;20366;-79
2023/01/29 02:17:47;;;;;;;;;;;0.30;99.90;;;;;;5021884;28;20027;-79
2023/01/29 02:20:38;;;;;;;;;;;0.30;99.90;;;;;;5020400;28;19992;-79
2023/01/29 02:23:26;;;;;;;;;;;0.30;99.90;;;;;;5014393;28;20337;-79
2023/01/29 02:25:54;;;;;;;;;;;0.30;99.90;;;;;;5001151;28;20370;-78
2023/01/29 02:28:29;;;;;;;;;;;0.30;99.90;;;;;;5021164;28;20341;-79
2023/01/29 02:31:07;;;;;;;;;;;0.20;99.90;;;;;;5000647;28;19913;-78
2023/01/29 02:33:44;;;;;;;;;;;0.20;99.90;;;;;;5018331;28;20331;-78
2023/01/29 02:36:28;;;;;;;;;;;0.30;99.90;;;;;;5018057;28;19913;-79
2023/01/29 02:38:54;;;;;;;;;;;0.30;99.90;;;;;;5037577;28;20366;-79
2023/01/29 02:41:19;;;;;;;;;;;0.40;99.90;;;;;;5037627;28;19916;-79
2023/01/29 02:43:48;;;;;;;;;;;0.40;99.90;;;;;;5032186;28;19932;-79
2023/01/29 02:46:26;;;;;;;;;;;0.40;99.90;;;;;;5018784;28;20164;-79
2023/01/29 02:49:10;;;;;;;;;;;0.30;99.90;;;;;;5017674;28;19927;-79
2023/01/29 02:51:38;;;;;;;;;;;0.30;99.90;;;;;;5018492;28;19939;-78
2023/01/29 02:54:12;;;;;;;;;;;0.30;99.90;;;;;;5021397;28;19945;-79
2023/01/29 02:56:43;;;;;;;;;;;0.30;99.90;;;;;;5037980;28;19913;-79
2023/01/29 02:59:13;;;;;;;;;;;0.40;99.90;;;;;;5038062;28;19909;-79
2023/01/29 03:01:48;;;;;;;;;;;0.40;99.90;;;;;;5039505;28;19916;-79
2023/01/29 03:04:17;;;;;;;;;;;0.40;99.90;;;;;;5023239;28;19960;-78
2023/01/29 03:06:47;;;;;;;;;;;0.40;99.90;;;;;;5014322;28;20025;-78
2023/01/29 03:09:21;;;;;;;;;;;0.40;99.90;;;;;;5017254;28;19937;-79
2023/01/29 03:11:51;;;;;;;;;;;0.50;99.90;;;;;;5017012;28;19964;-80
2023/01/29 03:14:23;;;;;;;;;;;0.50;99.90;;;;;;5016734;28;19921;-80
2023/01/29 03:16:50;;;;;;;;;;;0.50;99.90;;;;;;5020054;28;20258;-79
2023/01/29 03:19:16;;;;;;;;;;;0.60;99.90;;;;;;5018459;28;19915;-79
2023/01/29 03:21:57;;;;;;;;;;;0.60;99.90;;;;;;5016887;28;19972;-79
2023/01/29 03:32:56;;;;;;;;;;;0.40;99.90;;;;;;4998407;28;19921;-78
2023/01/29 03:35:34;;;;;;;;;;;0.40;99.90;;;;;;5016408;28;19909;-78
2023/01/29 03:38:00;;;;;;;;;;;0.50;99.90;;;;;;5015232;28;19957;-77
2023/01/29 03:40:28;;;;;;;;;;;0.50;99.90;;;;;;5015988;28;20366;-78
2023/01/29 03:43:12;;;;;;;;;;;0.40;99.90;;;;;;5015692;28;19910;-78
2023/01/29 03:45:43;;;;;;;;;;;0.40;99.90;;;;;;5016890;28;19902;-78
2023/01/29 03:48:17;;;;;;;;;;;0.40;99.90;;;;;;5015277;28;19964;-77
2023/01/29 03:50:53;;;;;;;;;;;0.40;99.90;;;;;;5015957;28;20002;-78
2023/01/29 03:53:18;;;;;;;;;;;0.40;99.90;;;;;;5008518;28;19964;-78
2023/01/29 03:56:05;;;;;;;;;;;0.50;99.90;;;;;;5001949;28;19914;-78
2023/01/29 03:58:51;;;;;;;;;;;0.50;99.90;;;;;;5038681;28;19940;-78
2023/01/29 04:01:23;;;;;;;;;;;0.50;99.90;;;;;;5039677;28;19909;-79
2023/01/29 04:03:51;;;;;;;;;;;0.50;99.90;;;;;;5031452;28;19923;-79
2023/01/29 04:06:22;;;;;;;;;;;0.50;99.90;;;;;;5028049;28;19928;-79
2023/01/29 04:08:54;;;;;;;;;;;0.50;99.90;;;;;;5020898;28;20012;-79
2023/01/29 04:11:21;;;;;;;;;;;0.50;99.90;;;;;;5005175;28;19957;-79
2023/01/29 04:13:46;;;;;;;;;;;0.50;99.90;;;;;;5021829;28;19929;-79
2023/01/29 04:16:15;;;;;;;;;;;0.40;99.90;;;;;;5006713;28;19917;-80
2023/01/29 04:18:43;;;;;;;;;;;0.40;99.90;;;;;;5023461;28;19913;-80
2023/01/29 04:21:17;;;;;;;;;;;0.40;99.90;;;;;;5017915;28;19956;-79
2023/01/29 04:23:45;;;;;;;;;;;0.40;99.90;;;;;;5038413;28;19944;-79
2023/01/29 04:26:20;;;;;;;;;;;0.40;99.90;;;;;;5039097;28;19913;-80
2023/01/29 04:28:58;;;;;;;;;;;0.50;99.90;;;;;;5022544;28;19914;-80
2023/01/29 04:31:27;;;;;;;;;;;0.50;99.90;;;;;;5039234;28;19913;-80
2023/01/29 04:34:12;;;;;;;;;;;0.60;99.90;;;;;;5039241;28;19973;-80
2023/01/29 04:36:55;;;;;;;;;;;0.60;99.90;;;;;;5034663;28;19909;-79
2023/01/29 04:39:23;;;;;;;;;;;0.60;99.90;;;;;;5009010;28;19921;-78
2023/01/29 04:41:52;;;;;;;;;;;0.60;99.90;;;;;;5002656;28;19916;-78
2023/01/29 04:44:38;;;;;;;;;;;0.60;99.90;;;;;;4999379;28;19914;-78
2023/01/29 04:47:22;;;;;;;;;;;0.60;99.90;;;;;;4999982;28;20037;-79
2023/01/29 04:50:00;;;;;;;;;;;0.60;99.90;;;;;;5000525;28;20000;-79
2023/01/29 04:52:38;;;;;;;;;;;0.50;99.90;;;;;;4982304;28;19914;-80
2023/01/29 04:55:03;;;;;;;;;;;0.40;99.90;;;;;;5000198;28;19913;-79
2023/01/29 04:57:38;;;;;;;;;;;0.40;99.90;;;;;;4998511;28;20320;-77
2023/01/29 05:00:12;;;;;;;;;;;0.40;99.90;;;;;;5017331;28;20008;-79
2023/01/29 05:02:39;;;;;;;;;;;0.40;99.90;;;;;;5019851;28;19920;-79
2023/01/29 05:05:06;;;;;;;;;;;0.50;99.90;;;;;;5027158;28;19925;-78
2023/01/29 05:07:34;;;;;;;;;;;0.50;99.90;;;;;;5033160;28;19948;-79
2023/01/29 05:09:59;;;;;;;;;;;0.60;99.90;;;;;;5019406;28;19916;-79
2023/01/29 05:12:27;;;;;;;;;;;0.60;99.90;;;;;;5017094;28;19913;-79
2023/01/29 05:14:54;;;;;;;;;;;0.60;99.90;;;;;;5000798;28;19953;-80
2023/01/29 05:17:19;;;;;;;;;;;0.50;99.90;;;;;;5019276;28;19913;-78
2023/01/29 05:19:45;;;;;;;;;;;0.50;99.90;;;;;;5017531;28;20422;-78
2023/01/29 05:22:12;;;;;;;;;;;0.40;99.90;;;;;;5019784;28;19952;-78
2023/01/29 05:24:37;;;;;;;;;;;0.40;99.90;;;;;;5017904;28;19913;-79
2023/01/29 05:29:47;;;;;;;;;;;0.40;99.90;;;;;;5026962;28;19936;-78
2023/01/29 05:32:14;;;;;;;;;;;0.40;99.90;;;;;;5019396;28;19917;-79
2023/01/29 05:34:40;;;;;;;;;;;0.30;99.90;;;;;;5028107;28;19913;-78
2023/01/29 05:37:06;;;;;;;;;;;0.30;99.90;;;;;;5029009;28;19916;-79
2023/01/29 05:39:31;;;;;;;;;;;0.40;99.90;;;;;;5032258;28;19937;-78
2023/01/29 05:41:57;;;;;;;;;;;0.40;99.90;;;;;;5016024;28;20367;-78
2023/01/29 05:44:23;;;;;;;;;;;0.30;99.90;;;;;;5016297;28;19918;-79
2023/01/29 05:46:49;;;;;;;;;;;0.30;99.90;;;;;;5019871;28;20358;-78
2023/01/29 05:49:15;;;;;;;;;;;0.30;99.90;;;;;;5017344;28;19920;-79
2023/01/29 05:51:40;;;;;;;;;;;0.30;99.90;;;;;;4980342;28;19910;-79
2023/01/29 05:54:06;;;;;;;;;;;0.30;99.90;;;;;;4997334;28;19960;-78
2023/01/29 05:56:31;;;;;;;;;;;0.30;99.90;;;;;;4997143;28;19918;-79
2023/01/29 05:58:57;;;;;;;;;;;0.20;99.90;;;;;;4997846;28;19932;-79
2023/01/29 06:01:24;;;;;;;;;;;0.20;99.90;;;;;;5028251;28;19898;-79
2023/01/29 06:03:49;;;;;;;;;;;0.20;99.90;;;;;;5036096;28;19917;-80
2023/01/29 06:06:15;;;;;;;;;;;0.20;99.90;;;;;;5014428;28;19932;-78
2023/01/29 06:08:41;;;;;;;;;;;0.20;99.90;;;;;;5038444;28;19992;-78
2023/01/29 06:11:07;;;;;;;;;;;0.20;99.90;;;;;;5021324;28;20303;-79
2023/01/29 06:13:32;;;;;;;;;;;0.20;99.90;;;;;;5021059;28;19925;-79
2023/01/29 06:15:58;;;;;;;;;;;0.20;99.90;;;;;;5022309;28;19918;-78
2023/01/29 06:18:23;;;;;;;;;;;0.20;99.90;;;;;;5031374;28;19960;-78
2023/01/29 06:20:49;;;;;;;;;;;0.20;99.90;;;;;;5033363;28;20000;-78
2023/01/29 06:23:14;;;;;;;;;;;0.20;99.90;;;;;;5032232;28;19917;-76
2023/01/29 06:25:40;;;;;;;;;;;0.10;99.90;;;;;;5019571;28;19925;-77
2023/01/29 06:28:05;;;;;;;;;;;0.10;99.90;;;;;;5016442;28;19909;-78
2023/01/29 06:30:31;;;;;;;;;;;0.10;99.90;;;;;;5017340;28;19913;-78
2023/01/29 06:32:57;;;;;;;;;;;0.10;99.90;;;;;;4997030;28;19921;-78
2023/01/29 06:35:23;;;;;;;;;;;0.10;99.90;;;;;;5017037;28;19921;-78
2023/01/29 06:37:49;;;;;;;;;;;0.10;99.90;;;;;;5017189;28;19917;-79
2023/01/29 06:40:14;;;;;;;;;;;0.20;99.90;;;;;;5017024;28;20381;-79
2023/01/29 06:42:40;;;;;;;;;;;0.20;99.90;;;;;;5019275;28;20299;-78
2023/01/29 06:45:06;;;;;;;;;;;0.20;99.90;;;;;;5025219;28;19961;-79
2023/01/29 06:47:31;;;;;;;;;;;0.20;99.90;;;;;;5021469;28;20357;-78
2023/01/29 06:49:57;;;;;;;;;;;0.20;99.90;;;;;;5015516;28;19914;-79
2023/01/29 06:52:24;;;;;;;;;;;0.20;99.90;;;;;;5016803;28;19916;-80
2023/01/29 06:54:49;;;;;;;;;;;0.20;99.90;;;;;;5016212;28;20355;-78
2023/01/29 06:57:15;;;;;;;;;;;0.20;99.90;;;;;;5025747;28;19972;-78
2023/01/29 06:59:40;;;;;;;;;;;0.20;99.90;;;;;;5017508;28;19973;-78
2023/01/29 07:02:06;;;;;;;;;;;0.30;99.90;;;;;;5017152;28;19909;-77
2023/01/29 07:04:31;;;;;;;;;;;0.20;99.90;;;;;;5013378;28;19921;-78
2023/01/29 07:07:00;;;;;;;;;;;0.20;99.90;;;;;;5021162;28;19983;-78
2023/01/29 07:09:25;;;;;;;;;;;0.20;99.90;;;;;;5039154;28;19909;-78
2023/01/29 07:11:51;;;;;;;;;;;0.20;99.90;;;;;;5036766;28;19909;-78
2023/01/29 07:14:16;;;;;;;;;;;0.20;99.90;;;;;;5035579;28;20313;-79
2023/01/29 07:16:42;;;;;;;;;;;0.20;99.90;;;;;;5040417;28;19913;-78
2023/01/29 07:19:07;;;;;;;;;;;0.20;99.90;;;;;;5040628;28;19932;-79
2023/01/29 07:21:36;;;;;;;;;;;0.20;99.90;;;;;;5033973;28;19932;-79
2023/01/29 07:24:02;;;;;;;;;;;0.20;99.90;;;;;;4996821;28;19924;-79
2023/01/29 07:26:27;;;;;;;;;;;0.20;99.90;;;;;;5004468;28;20080;-77
2023/01/29 07:28:53;;;;;;;;;;;0.20;99.90;;;;;;5042732;28;19917;-79
2023/01/29 07:31:20;;;;;;;;;;;0.20;99.90;;;;;;5033120;28;19909;-78
2023/01/29 07:33:54;;;;;;;;;;;0.30;99.90;;;;;;5033627;28;19913;-78
2023/01/29 07:36:20;;;;;;;;;;;0.30;99.90;;;;;;5018937;28;19909;-78
2023/01/29 07:38:49;;;;;;;;;;;0.40;99.90;;;;;;5034103;28;20007;-78
2023/01/29 07:41:15;;;;;;;;;;;0.50;99.90;;;;;;5035745;28;19909;-78
2023/01/29 07:43:41;;;;;;;;;;;0.60;99.90;;;;;;5038024;28;19914;-78
2023/01/29 07:46:06;;;;;;;;;;;0.70;99.90;;;;;;5030601;28;19909;-78
2023/01/29 07:48:32;;;;;;;;;;;0.70;99.90;;;;;;5028469;28;19913;-78
2023/01/29 07:50:58;;;;;;;;;;;0.80;99.90;;;;;;5025942;28;19916;-77
2023/01/29 07:53:24;;;;;;;;;;;0.80;99.90;;;;;;5022965;28;20003;-77
2023/01/29 07:55:50;;;;;;;;;;;0.90;99.90;;;;;;5039440;28;20434;-78
2023/01/29 07:58:16;;;;;;;;;;;0.90;99.90;;;;;;5044828;28;19979;-78
2023/01/29 08:00:42;;;;;;;;;;;1.00;99.70;;;;;;5022520;28;19913;-76
2023/01/29 08:03:12;;;;;;;;;;;1.00;99.60;;;;;;5016337;28;19921;-77
2023/01/29 08:05:38;;;;;;;;;;;1.10;99.40;;;;;;5034952;28;19913;-76
2023/01/29 08:08:07;;;;;;;;;;;1.10;99.00;;;;;;5042364;28;19928;-77
2023/01/29 08:10:33;;;;;;;;;;;1.10;98.70;;;;;;5040379;28;20293;-76
2023/01/29 08:12:59;;;;;;;;;;;1.20;98.40;;;;;;5026427;28;19987;-77
2023/01/29 08:15:28;;;;;;;;;;;1.20;98.30;;;;;;5020619;28;19910;-78
2023/01/29 08:17:54;;;;;;;;;;;1.10;98.00;;;;;;5031900;28;20494;-78
2023/01/29 08:20:20;;;;;;;;;;;1.10;98.00;;;;;;5020463;28;19914;-78
2023/01/29 08:22:46;;;;;;;;;;;1.10;97.60;;;;;;5020168;28;19914;-78
2023/01/29 08:25:11;;;;;;;;;;;1.00;96.80;;;;;;5021250;28;19920;-78
2023/01/29 08:27:40;;;;;;;;;;;1.10;97.10;;;;;;5032557;28;19913;-77
2023/01/29 08:30:06;;;;;;;;;;;1.10;97.20;;;;;;5043701;28;19909;-77
2023/01/29 08:32:32;;;;;;;;;;;1.20;97.00;;;;;;5013092;28;20334;-77
2023/01/29 08:34:58;;;;;;;;;;;1.40;97.00;;;;;;5023436;28;19920;-78
2023/01/29 08:37:23;;;;;;;;;;;1.40;96.60;;;;;;5039113;28;19917;-78
2023/01/29 08:39:49;;;;;;;;;;;1.40;96.40;;;;;;5024479;28;19916;-78
2023/01/29 08:42:18;;;;;;;;;;;1.40;96.10;;;;;;5039548;28;19913;-78
2023/01/29 08:44:47;;;;;;;;;;;1.50;96.00;;;;;;5038729;28;19917;-77
2023/01/29 08:47:13;;;;;;;;;;;1.50;95.80;;;;;;5034346;28;19913;-77
2023/01/29 08:49:39;;;;;;;;;;;1.60;95.50;;;;;;5023475;28;20326;-78
2023/01/29 08:52:04;;;;;;;;;;;1.60;95.30;;;;;;5035693;28;19914;-77
2023/01/29 08:54:30;;;;;;;;;;;1.70;95.10;;;;;;5020936;28;19917;-78
2023/01/29 08:56:56;;;;;;;;;;;1.60;94.60;;;;;;5023812;28;19937;-81
2023/01/29 08:59:21;;;;;;;;;;;1.60;94.60;;;;;;5042412;28;20003;-76
2023/01/29 09:01:47;;;;;;;;;;;1.60;94.80;;;;;;5043026;28;19931;-78
2023/01/29 09:04:13;;;;;;;;;;;1.70;94.70;;;;;;5034221;28;19955;-78
2023/01/29 09:06:38;;;;;;;;;;;1.80;94.80;;;;;;5024564;28;19964;-78
2023/01/29 09:09:04;;;;;;;;;;;1.90;94.80;;;;;;5020159;28;19917;-79
2023/01/29 09:11:29;;;;;;;;;;;1.80;94.30;;;;;;5020068;28;19925;-79
2023/01/29 09:13:55;;;;;;;;;;;1.60;93.90;;;;;;5005789;28;19988;-78
2023/01/29 09:16:21;;;;;;;;;;;1.50;93.90;;;;;;5038037;28;19893;-78
2023/01/29 09:18:46;;;;;;;;;;;1.40;94.10;;;;;;5019041;28;19910;-77
2023/01/29 09:21:12;;;;;;;;;;;1.40;94.40;;;;;;5021079;28;19913;-79
2023/01/29 09:23:37;;;;;;;;;;;1.40;94.40;;;;;;5020626;28;20377;-80
2023/01/29 09:26:03;;;;;;;;;;;1.40;94.20;;;;;;5024424;28;19914;-79
2023/01/29 09:28:28;;;;;;;;;;;1.40;94.20;;;;;;5026088;28;19913;-79
2023/01/29 09:30:54;;;;;;;;;;;1.40;93.90;;;;;;5029059;28;19969;-79
2023/01/29 09:33:19;;;;;;;;;;;1.40;94.00;;;;;;5019091;28;19953;-79
2023/01/29 09:35:46;;;;;;;;;;;1.30;94.00;;;;;;5028213;28;19918;-79
2023/01/29 09:38:11;;;;;;;;;;;1.20;94.20;;;;;;5014619;28;19920;-80
2023/01/29 09:40:42;;;;;;;;;;;1.20;94.30;;;;;;5038751;28;20004;-78
2023/01/29 09:43:12;;;;;;;;;;;1.20;94.30;;;;;;5033740;28;22508;-79
2023/01/29 09:45:40;;;;;;;;;;;1.20;94.40;;;;;;5018950;28;19925;-78
2023/01/29 09:48:09;;;;;;;;;;;1.30;94.50;;;;;;5020904;28;19916;-78
2023/01/29 09:50:39;;;;;;;;;;;1.30;94.50;;;;;;5020351;28;19917;-79
2023/01/29 09:53:05;;;;;;;;;;;1.30;94.40;;;;;;5025056;28;20047;-77
2023/01/29 09:55:34;;;;;;;;;;;1.20;94.50;;;;;;5039328;28;19956;-78
2023/01/29 09:58:02;;;;;;;;;;;1.20;94.50;;;;;;5018219;28;20073;-77
2023/01/29 10:00:31;;;;;;;;;;;1.20;94.70;;;;;;5020674;28;19929;-78
2023/01/29 10:03:12;;;;;;;;;;;1.20;95.40;;;;;;5002419;28;19952;-78
2023/01/29 10:05:47;;;;;;;;;;;1.20;95.60;;;;;;5019848;28;19917;-78
2023/01/29 10:08:15;;;;;;;;;;;1.20;95.40;;;;;;5023354;28;19913;-78
2023/01/29 10:10:46;;;;;;;;;;;1.20;95.80;;;;;;5032728;28;19913;-77
2023/01/29 10:13:32;;;;;;;;;;;1.20;95.90;;;;;;5022952;28;19928;-78
2023/01/29 10:15:57;;;;;;;;;;;1.20;96.00;;;;;;4973030;28;20020;-78
2023/01/29 10:18:23;;;;;;;;;;;1.20;95.90;;;;;;5018714;28;19953;-78
2023/01/29 10:20:52;;;;;;;;;;;1.20;95.80;;;;;;5028594;28;19901;-80
2023/01/29 10:23:24;;;;;;;;;;;1.20;95.80;;;;;;5031785;28;19914;-79
2023/01/29 10:25:49;;;;;;;;;;;1.30;96.10;;;;;;5026971;28;20349;-79
2023/01/29 10:28:27;;;;;;;;;;;1.40;96.30;;;;;;5032422;28;19918;-79
2023/01/29 10:31:01;;;;;;;;;;;1.60;96.20;;;;;;5018004;28;19913;-78
2023/01/29 10:33:32;;;;;;;;;;;1.70;95.70;;;;;;5024488;28;20281;-78
2023/01/29 10:36:01;;;;;;;;;;;1.60;94.90;;;;;;5021955;28;19946;-78
2023/01/29 10:38:32;;;;;;;;;;;1.50;95.00;;;;;;5034763;28;20389;-78
2023/01/29 10:41:17;;;;;;;;;;;1.50;95.30;;;;;;5026465;28;19936;-79
2023/01/29 10:43:50;;;;;;;;;;;1.50;95.50;;;;;;5017446;28;19996;-78
2023/01/29 10:46:15;;;;;;;;;;;1.50;95.20;;;;;;5033971;28;19921;-79
2023/01/29 10:48:53;;;;;;;;;;;1.50;95.30;;;;;;5039106;28;19913;-79
2023/01/29 10:51:18;;;;;;;;;;;1.50;95.20;;;;;;5034821;28;19920;-79
2023/01/29 10:53:47;;;;;;;;;;;1.60;95.30;;;;;;5019910;28;19917;-79
2023/01/29 10:56:12;;;;;;;;;;;1.50;95.40;;;;;;4999428;28;20375;-79
2023/01/29 10:58:41;;;;;;;;;;;1.60;95.40;;;;;;5017447;28;19975;-79
2023/01/29 11:01:08;;;;;;;;;;;1.60;95.40;;;;;;5018047;28;19913;-79
2023/01/29 11:03:33;;;;;;;;;;;1.80;95.30;;;;;;5017756;28;20355;-78
2023/01/29 11:06:11;;;;;;;;;;;1.80;95.10;;;;;;5018680;28;19914;-79
2023/01/29 11:08:41;;;;;;;;;;;1.80;94.60;;;;;;5017955;28;20317;-81
2023/01/29 11:11:08;;;;;;;;;;;1.70;94.50;;;;;;5022181;28;19921;-80
2023/01/29 11:13:39;;;;;;;;;;;1.60;94.70;;;;;;5012068;28;19918;-80
2023/01/29 11:16:05;;;;;;;;;;;1.50;95.00;;;;;;5029279;28;19933;-79
2023/01/29 11:18:47;;;;;;;;;;;1.60;95.40;;;;;;5046118;28;19914;-78
2023/01/29 11:21:13;;;;;;;;;;;1.70;95.30;;;;;;5017225;28;19916;-79
2023/01/29 11:23:39;;;;;;;;;;;1.60;94.50;;;;;;5000566;28;20041;-78
2023/01/29 11:26:05;;;;;;;;;;;1.60;94.70;;;;;;5018951;28;20025;-78
2023/01/29 11:28:38;;;;;;;;;;;1.50;94.60;;;;;;5019527;28;20374;-78
2023/01/29 11:31:14;;;;;;;;;;;1.40;95.20;;;;;;5014015;28;19921;-79
2023/01/29 11:33:40;;;;;;;;;;;1.40;95.10;;;;;;5022831;28;20004;-79
2023/01/29 11:36:19;;;;;;;;;;;1.30;95.20;;;;;;5026200;28;19940;-80
2023/01/29 11:38:44;;;;;;;;;;;1.30;95.40;;;;;;5035008;28;20020;-80
2023/01/29 11:41:21;;;;;;;;;;;1.30;95.40;;;;;;5038601;28;20365;-80
2023/01/29 11:43:46;;;;;;;;;;;1.30;95.60;;;;;;5039959;28;20000;-80
2023/01/29 11:46:14;;;;;;;;;;;1.40;95.60;;;;;;5040341;28;19920;-79
2023/01/29 11:48:39;;;;;;;;;;;1.40;95.40;;;;;;5033108;28;20349;-79
2023/01/29 11:51:05;;;;;;;;;;;1.40;95.10;;;;;;5041333;28;19927;-79
2023/01/29 11:53:33;;;;;;;;;;;1.40;95.20;;;;;;5041975;28;19920;-79
2023/01/29 11:56:00;;;;;;;;;;;1.50;95.40;;;;;;5032420;28;19936;-80
2023/01/29 11:58:27;;;;;;;;;;;1.60;95.30;;;;;;5025476;28;19917;-80
2023/01/29 12:00:54;;;;;;;;;;;1.80;95.30;;;;;;5005045;28;20011;-79
2023/01/29 12:03:39;;;;;;;;;;;2.00;95.20;;;;;;5018135;28;19949;-79
2023/01/29 12:06:12;;;;;;;;;;;2.20;95.00;;;;;;5025620;28;20421;-80
2023/01/29 12:08:38;;;;;;;;;;;2.50;94.60;;;;;;5017651;28;20007;-80
2023/01/29 12:11:11;;;;;;;;;;;2.60;94.10;;;;;;5000440;28;19952;-80
2023/01/29 12:13:39;;;;;;;;;;;2.70;93.80;;;;;;5026913;28;19921;-80
2023/01/29 12:16:26;;;;;;;;;;;2.80;93.50;;;;;;5039169;28;19924;-80
2023/01/29 12:18:55;;;;;;;;;;;2.90;93.10;;;;;;5029055;28;19940;-80
2023/01/29 12:21:25;;;;;;;;;;;2.90;92.80;;;;;;5039908;28;19909;-79
2023/01/29 12:23:51;;;;;;;;;;;3.00;92.70;;;;;;5029571;28;19926;-80
2023/01/29 12:26:21;;;;;;;;;;;3.10;92.50;;;;;;5002353;28;19933;-80
2023/01/29 12:29:02;;;;;;;;;;;3.10;92.50;;;;;;5015303;28;20063;-79
2023/01/29 12:31:30;;;;;;;;;;;3.10;92.20;;;;;;5038864;28;20008;-79
2023/01/29 12:34:00;;;;;;;;;;;3.00;92.10;;;;;;5030293;28;19918;-80
2023/01/29 12:36:45;;;;;;;;;;;2.90;92.20;;;;;;5035126;28;19915;-79
2023/01/29 12:39:15;;;;;;;;;;;2.90;92.20;;;;;;5024751;28;20294;-79
2023/01/29 12:41:56;;;;;;;;;;;2.80;91.90;;;;;;5019776;28;19914;-79
2023/01/29 12:44:30;;;;;;;;;;;2.70;92.10;;;;;;5019462;28;19914;-80
2023/01/29 12:46:57;;;;;;;;;;;2.70;92.20;;;;;;5020231;28;20008;-81
2023/01/29 12:49:32;;;;;;;;;;;2.70;92.30;;;;;;5022680;28;19999;-78
2023/01/29 12:52:01;;;;;;;;;;;2.60;92.30;;;;;;5031299;28;20375;-81
2023/01/29 12:54:33;;;;;;;;;;;2.60;92.40;;;;;;5007200;28;19952;-81
2023/01/29 12:57:01;;;;;;;;;;;2.50;92.40;;;;;;5019877;28;19917;-81
2023/01/29 12:59:40;;;;;;;;;;;2.50;92.50;;;;;;5032380;28;19919;-80
2023/01/29 13:02:20;;;;;;;;;;;2.50;92.40;;;;;;5027859;28;20294;-79
2023/01/29 13:05:20;;;;;;;;;;;2.40;91.90;;;;;;5028464;28;19917;-79
2023/01/29 13:07:48;;;;;;;;;;;2.40;92.40;;;;;;4933763;29;19962;-79
2023/01/29 13:10:16;;;;;;;;;;;2.30;92.60;;;;;;5010218;28;19913;-79
2023/01/29 13:12:48;;;;;;;;;;;2.30;92.80;;;;;;5040454;28;19913;-79
2023/01/29 13:15:21;;;;;;;;;;;2.40;92.90;;;;;;5037816;28;19996;-79
2023/01/29 13:17:52;;;;;;;;;;;2.30;93.00;;;;;;5045833;28;19914;-79
2023/01/29 13:20:23;;;;;;;;;;;2.40;93.00;;;;;;5043440;28;19909;-80
2023/01/29 13:22:49;;;;;;;;;;;2.30;92.90;;;;;;5033667;28;19913;-79
2023/01/29 13:25:15;;;;;;;;;;;2.30;92.90;;;;;;5016632;28;19994;-78
2023/01/29 13:27:41;;;;;;;;;;;2.40;92.90;;;;;;4996664;28;19914;-79
2023/01/29 13:30:07;;;;;;;;;;;2.40;92.90;;;;;;5021587;28;19916;-78
2023/01/29 13:32:34;;;;;;;;;;;2.30;92.90;;;;;;5026494;28;19909;-79
2023/01/29 13:35:03;;;;;;;;;;;2.30;93.00;;;;;;5023157;28;20020;-79
2023/01/29 13:37:30;;;;;;;;;;;2.40;93.00;;;;;;5023528;28;19913;-79
2023/01/29 13:39:56;;;;;;;;;;;2.40;92.90;;;;;;5022163;28;19914;-79
2023/01/29 13:42:24;;;;;;;;;;;2.40;92.80;;;;;;5020094;28;20402;-79
2023/01/29 13:44:56;;;;;;;;;;;2.40;92.50;;;;;;5019949;28;19922;-79
2023/01/29 13:47:32;;;;;;;;;;;2.30;92.10;;;;;;5022608;28;19894;-79
2023/01/29 13:50:04;;;;;;;;;;;2.30;92.20;;;;;;5029059;28;19923;-79
2023/01/29 13:52:32;;;;;;;;;;;2.20;92.60;;;;;;5031393;28;21665;-79
2023/01/29 13:55:13;;;;;;;;;;;2.20;92.90;;;;;;5006172;28;19902;-79
2023/01/29 13:57:47;;;;;;;;;;;2.10;93.00;;;;;;5017414;28;19913;-79
2023/01/29 14:00:16;;;;;;;;;;;2.10;93.00;;;;;;5040515;28;19928;-79
2023/01/29 14:02:41;;;;;;;;;;;2.10;93.20;;;;;;5038035;28;19920;-79
2023/01/29 14:05:25;;;;;;;;;;;2.10;93.50;;;;;;5031041;28;19913;-79
2023/01/29 14:07:51;;;;;;;;;;;2.20;93.50;;;;;;5026400;28;19928;-79
2023/01/29 14:10:18;;;;;;;;;;;2.30;93.30;;;;;;5003292;28;20004;-79
2023/01/29 14:12:44;;;;;;;;;;;2.30;93.20;;;;;;5021557;28;19977;-79
2023/01/29 14:15:15;;;;;;;;;;;2.20;93.30;;;;;;5038597;28;19909;-79
2023/01/29 14:17:53;;;;;;;;;;;2.20;93.20;;;;;;5019803;28;19985;-79
2023/01/29 14:20:20;;;;;;;;;;;2.10;93.30;;;;;;5005308;28;19920;-78
2023/01/29 14:22:53;;;;;;;;;;;2.10;93.40;;;;;;5028353;28;19921;-78
2023/01/29 14:25:19;;;;;;;;;;;2.10;93.50;;;;;;5035573;28;19917;-78
2023/01/29 14:27:48;;;;;;;;;;;2.10;93.30;;;;;;5035425;28;20486;-80
2023/01/29 14:30:17;;;;;;;;;;;2.10;93.30;;;;;;5020630;28;19921;-80
2023/01/29 14:32:46;;;;;;;;;;;2.00;93.30;;;;;;5010031;28;19953;-78
2023/01/29 14:35:15;;;;;;;;;;;1.90;93.30;;;;;;5020382;28;19913;-78
2023/01/29 14:37:43;;;;;;;;;;;1.70;93.50;;;;;;5017887;28;19914;-78
2023/01/29 14:40:18;;;;;;;;;;;1.70;93.60;;;;;;5018079;28;20289;-80
2023/01/29 14:42:54;;;;;;;;;;;1.60;93.80;;;;;;5020078;28;19913;-79
2023/01/29 14:45:25;;;;;;;;;;;1.60;93.50;;;;;;5021175;28;19918;-79
2023/01/29 14:47:52;;;;;;;;;;;1.50;94.00;;;;;;5019987;28;19917;-78
2023/01/29 14:50:27;;;;;;;;;;;1.40;94.40;;;;;;5018195;28;19926;-79
2023/01/29 14:52:53;;;;;;;;;;;1.40;94.50;;;;;;5015332;28;20322;-78
2023/01/29 14:55:21;;;;;;;;;;;1.40;94.80;;;;;;5017680;28;20327;-78
2023/01/29 14:57:48;;;;;;;;;;;1.40;95.00;;;;;;5018820;28;19971;-80
2023/01/29 15:00:19;;;;;;;;;;;1.40;94.90;;;;;;5017631;28;20012;-78
2023/01/29 15:02:44;;;;;;;;;;;1.40;94.70;;;;;;5019419;28;19917;-78
2023/01/29 15:05:12;;;;;;;;;;;1.40;94.70;;;;;;5021247;28;19924;-78
2023/01/29 15:07:42;;;;;;;;;;;1.40;94.60;;;;;;5006860;28;19921;-78